Search for airport 
image banner adimage banner adimage banner ad
image banner ad

KPRB - Paso Robles Muni

Located in Paso Robles, United States

ICAO - PRB, IATA -

Data provided by Airmate  

General information

Coordinates: N35°40'22" W120°37'37"
Elevation is 839 feet MSL.
Magnetic variation is 15° East
View others Airports in California

Operational data

Special qualification required
Current time UTC:
Current local time:
Weather
METAR: KPRB 240853Z AUTO 25004KT 10SM CLR 13/10 A3000 RMK AO2 SLP154 T01330100 50003
TAF: KPRB 240559Z 2406/2506 19008KT P6SM SKC FM241000 VRB03KT P6SM BKN010 FM241700 22008KT P6SM SKC FM242200 21015G25KT P6SM SKC FM250300 20008KT P6SM SKC
View NOTAMs / SUP AIP / TFR affecting this airport [VIEW]
Communications frequencies: [VIEW]

Runways:

RWY identifierQFULength (ft)Width (ft)SurfaceLDA (ft)
0129°6008150ASPH
19209°6008150ASPH
13144°4701100ASPH
31324°4701100ASPH

Airport contact information

Address: Paso Robles United States

Other aviation service providers

Flight schools

Del Rio Aviation, Inc

Del Rio Aviation, Inc
delriousa@thegrid.net+1(805)238-0800

Satellite view of KPRB